YPID weather

Phillip Island Airport
Victoria, Australia

Public forecast

Using degrees Celsius for public forecast. Weather courtesy of forecast.io.

METAR (pilot weather report)

Closest report is Avalon Airport, 49.8 nm (92.2 km) NW. Retrieved 2019/04/21 00:30 UTC (6 minutes ago):

YMAV 210030Z AUTO 01014KT 9999 // SCT105 24/10 Q1016 RF00.0/000.0

TAF (pilot weather forecast)

Forecast is more than 6 hours old.

Closest forecast is Avalon Airport, 49.8 nm (92.2 km) NW. Retrieved 2019/04/20 18:00 UTC (7 hours ago):

TAF YMAV 201706Z 2018/2118 01006KT CAVOK FM202200 01016G28KT CAVOK FM210600 21007KT 9999 -SHRA SCT050 BKN080 FM211000 24012KT 9999 -SHRA SCT015 BKN025 INTER 2116/2118 5000 SHRA BKN010